createdAt,value
2017-01-07T00:00:08.290Z,-10.97
2017-01-07T00:01:07.912Z,-11.27
2017-01-07T00:02:07.674Z,-11.07
2017-01-07T00:03:07.482Z,-11.16
2017-01-07T00:04:08.612Z,-11.04
2017-01-07T00:05:07.159Z,-10.95
2017-01-07T00:06:07.732Z,-11.72
2017-01-07T00:07:07.551Z,-11.56
2017-01-07T00:08:08.225Z,-11.31
2017-01-07T00:09:07.785Z,-11.36
2017-01-07T00:10:07.650Z,-11.31
2017-01-07T00:11:07.260Z,-11.35
2017-01-07T00:12:07.981Z,-11.07
2017-01-07T00:13:07.426Z,-10.92
2017-01-07T00:14:08.038Z,-10.89
2017-01-07T00:15:07.557Z,-11.13
2017-01-07T00:16:07.624Z,-11.09
2017-01-07T00:17:07.297Z,-11.06
2017-01-07T00:18:07.929Z,-11.02
2017-01-07T00:19:07.712Z,-11.10
2017-01-07T00:20:07.259Z,-10.90
2017-01-07T00:21:07.951Z,-11.13
2017-01-07T00:22:07.456Z,-11.29
2017-01-07T00:23:08.279Z,-11.88
2017-01-07T00:24:07.787Z,-11.59
2017-01-07T00:25:07.239Z,-11.35
2017-01-07T00:26:07.859Z,-11.45
2017-01-07T00:27:07.422Z,-11.39
2017-01-07T00:28:07.866Z,-11.38
2017-01-07T00:29:07.342Z,-11.34
2017-01-07T00:30:07.920Z,-11.65
2017-01-07T00:31:07.822Z,-11.81
2017-01-07T00:32:07.290Z,-11.45
2017-01-07T00:33:07.846Z,-11.38
2017-01-07T00:34:07.313Z,-11.52
2017-01-07T00:35:07.933Z,-11.32
2017-01-07T00:36:07.728Z,-11.69
2017-01-07T00:37:07.231Z,-11.55
2017-01-07T00:38:07.740Z,-11.43
2017-01-07T00:39:07.290Z,-11.18
2017-01-07T00:40:08.001Z,-11.19
2017-01-07T00:41:07.869Z,-11.19
2017-01-07T00:42:07.280Z,-11.15
2017-01-07T00:43:07.843Z,-11.23
2017-01-07T00:44:07.352Z,-11.23
2017-01-07T00:45:07.904Z,-11.33
2017-01-07T00:46:07.446Z,-11.62
2017-01-07T00:47:07.929Z,-11.36
2017-01-07T00:48:07.459Z,-11.47
2017-01-07T00:49:08.034Z,-11.59
2017-01-07T00:50:07.624Z,-11.69
2017-01-07T00:51:07.486Z,-11.59
2017-01-07T00:52:07.575Z,-11.64
2017-01-07T00:53:08.190Z,-11.66
2017-01-07T00:54:07.816Z,-12.23
2017-01-07T00:55:07.331Z,-11.73
2017-01-07T00:56:07.938Z,-11.71
2017-01-07T00:57:07.445Z,-11.81
2017-01-07T00:58:07.950Z,-11.97
2017-01-07T00:59:07.686Z,-11.92
2017-01-07T01:00:07.446Z,-11.63
2017-01-07T01:01:08.379Z,-11.64
2017-01-07T01:02:07.812Z,-11.64
2017-01-07T01:03:07.413Z,-11.57
2017-01-07T01:04:07.719Z,-11.74
2017-01-07T01:05:07.270Z,-11.77
2017-01-07T01:06:08.231Z,-11.96
2017-01-07T01:07:07.978Z,-11.66
2017-01-07T01:08:07.500Z,-11.82
2017-01-07T01:09:07.422Z,-11.56
2017-01-07T01:10:07.865Z,-11.74
2017-01-07T01:11:07.583Z,-11.64
2017-01-07T01:12:07.476Z,-11.69
2017-01-07T01:13:08.101Z,-11.42
2017-01-07T01:14:07.640Z,-11.48
2017-01-07T01:15:07.528Z,-11.38
2017-01-07T01:16:08.066Z,-11.60
2017-01-07T01:17:07.896Z,-11.63
2017-01-07T01:18:07.534Z,-11.37
2017-01-07T01:19:08.007Z,-11.63
2017-01-07T01:20:07.780Z,-11.27
2017-01-07T01:21:07.903Z,-11.74
2017-01-07T01:22:07.433Z,-12.04
2017-01-07T01:23:07.973Z,-11.96
2017-01-07T01:24:07.421Z,-11.46
2017-01-07T01:25:07.717Z,-11.68
2017-01-07T01:26:07.153Z,-11.67
2017-01-07T01:27:07.434Z,-11.36
2017-01-07T01:28:07.716Z,-11.65
2017-01-07T01:29:07.636Z,-11.58
2017-01-07T01:30:07.052Z,-11.69
2017-01-07T01:31:07.532Z,-11.53
2017-01-07T01:32:08.337Z,-11.65
2017-01-07T01:33:08.174Z,-11.53
2017-01-07T01:34:07.616Z,-11.27
2017-01-07T01:35:07.684Z,-11.46
2017-01-07T01:36:07.235Z,-11.97
2017-01-07T01:37:07.886Z,-11.83
2017-01-07T01:38:07.377Z,-11.53
2017-01-07T01:39:07.834Z,-11.86
2017-01-07T01:40:07.656Z,-12.00
2017-01-07T01:41:07.246Z,-11.77
2017-01-07T01:42:07.823Z,-11.64
2017-01-07T01:43:07.336Z,-11.34
2017-01-07T01:44:07.852Z,-11.31
2017-01-07T01:45:07.774Z,-11.47
2017-01-07T01:46:07.202Z,-11.58
2017-01-07T01:47:07.442Z,-11.45
2017-01-07T01:48:08.020Z,-11.46
2017-01-07T01:49:07.491Z,-12.02
2017-01-07T01:50:08.091Z,-12.01
2017-01-07T01:51:07.530Z,-11.90
2017-01-07T01:52:08.069Z,-12.10
2017-01-07T01:53:07.591Z,-11.93
2017-01-07T01:54:07.739Z,-11.75
2017-01-07T01:55:07.521Z,-11.67
2017-01-07T01:56:08.405Z,-11.30
2017-01-07T01:57:08.027Z,-11.86
2017-01-07T01:58:07.811Z,-11.98
2017-01-07T01:59:07.250Z,-11.73
2017-01-07T02:00:07.312Z,-11.96
2017-01-07T02:01:08.100Z,-12.03
2017-01-07T02:02:07.691Z,-12.21
2017-01-07T02:03:07.493Z,-11.89
2017-01-07T02:04:08.011Z,-11.91
2017-01-07T02:05:07.673Z,-12.03
2017-01-07T02:06:07.301Z,-11.81
2017-01-07T02:07:08.202Z,-12.07
2017-01-07T02:08:07.199Z,-11.91
2017-01-07T02:09:07.770Z,-12.43
2017-01-07T02:10:07.320Z,-12.32
2017-01-07T02:11:07.823Z,-12.34
2017-01-07T02:12:07.621Z,-12.03
2017-01-07T02:13:07.249Z,-11.71
2017-01-07T02:14:07.710Z,-11.91
2017-01-07T02:15:07.624Z,-12.04
2017-01-07T02:16:07.357Z,-12.01
2017-01-07T02:17:08.282Z,-11.99
2017-01-07T02:18:07.840Z,-12.00
2017-01-07T02:19:07.462Z,-11.91
2017-01-07T02:20:08.007Z,-12.01
2017-01-07T02:21:07.662Z,-12.29
2017-01-07T02:22:07.349Z,-12.36
2017-01-07T02:23:08.044Z,-12.39
2017-01-07T02:24:07.566Z,-12.35
2017-01-07T02:25:08.233Z,-12.15
2017-01-07T02:26:08.168Z,-12.50
2017-01-07T02:27:08.010Z,-12.65
2017-01-07T02:28:07.610Z,-12.65
2017-01-07T02:29:07.461Z,-12.61
2017-01-07T02:30:07.948Z,-12.13
2017-01-07T02:31:07.451Z,-12.29
2017-01-07T02:32:07.910Z,-12.24
2017-01-07T02:33:07.690Z,-12.56
2017-01-07T02:34:07.177Z,-12.35
2017-01-07T02:35:07.963Z,-12.69
2017-01-07T02:36:07.672Z,-12.41
2017-01-07T02:37:07.513Z,-12.48
2017-01-07T02:38:08.446Z,-12.29
2017-01-07T02:39:08.272Z,-12.49
2017-01-07T02:40:07.773Z,-12.28
2017-01-07T02:41:07.325Z,-12.11
2017-01-07T02:42:08.233Z,-12.24
2017-01-07T02:43:07.798Z,-12.12
2017-01-07T02:44:07.396Z,-11.72
2017-01-07T02:45:07.885Z,-12.16
2017-01-07T02:46:07.482Z,-11.92
2017-01-07T02:47:07.522Z,-12.14
2017-01-07T02:48:07.736Z,-12.05
2017-01-07T02:49:07.292Z,-11.97
2017-01-07T02:50:07.822Z,-11.82
2017-01-07T02:51:07.788Z,-12.03
2017-01-07T02:52:07.526Z,-12.04
2017-01-07T02:53:08.032Z,-12.11
2017-01-07T02:54:07.632Z,-12.16
2017-01-07T02:55:07.385Z,-12.21
2017-01-07T02:56:07.999Z,-12.21
2017-01-07T02:57:07.781Z,-11.99
2017-01-07T02:58:07.586Z,-12.12
2017-01-07T02:59:07.114Z,-12.10
2017-01-07T03:00:07.390Z,-12.35
2017-01-07T03:01:08.256Z,-12.24
2017-01-07T03:02:07.819Z,-12.15
2017-01-07T03:03:07.270Z,-12.16
2017-01-07T03:04:07.477Z,-12.39
2017-01-07T03:05:07.966Z,-12.35
2017-01-07T03:06:07.509Z,-12.41
2017-01-07T03:07:08.388Z,-12.14
2017-01-07T03:08:07.966Z,-12.12
2017-01-07T03:09:07.430Z,-12.06
2017-01-07T03:10:07.975Z,-11.93
2017-01-07T03:11:07.448Z,-11.93
2017-01-07T03:12:08.068Z,-12.32
2017-01-07T03:13:07.624Z,-12.61
2017-01-07T03:14:07.396Z,-12.84
2017-01-07T03:15:07.897Z,-12.79
2017-01-07T03:16:07.618Z,-12.52
2017-01-07T03:17:07.406Z,-12.35
2017-01-07T03:18:07.398Z,-11.92
2017-01-07T03:19:07.973Z,-12.14
2017-01-07T03:20:07.820Z,-12.06
2017-01-07T03:21:07.723Z,-11.97
2017-01-07T03:22:07.456Z,-11.85
2017-01-07T03:23:07.931Z,-12.01
2017-01-07T03:24:07.875Z,-12.12
2017-01-07T03:25:07.426Z,-11.86
2017-01-07T03:26:07.906Z,-11.75
2017-01-07T03:27:07.538Z,-11.63
2017-01-07T03:28:08.075Z,-11.80
2017-01-07T03:29:07.574Z,-12.05
2017-01-07T03:30:07.171Z,-11.84
2017-01-07T03:31:07.626Z,-11.94
2017-01-07T03:32:07.379Z,-11.88
2017-01-07T03:33:08.071Z,-11.93
2017-01-07T03:34:07.909Z,-12.05
2017-01-07T03:35:07.807Z,-11.99
2017-01-07T03:36:07.393Z,-12.23
2017-01-07T03:37:08.026Z,-12.21
2017-01-07T03:38:07.695Z,-11.87
2017-01-07T03:39:07.220Z,-12.45
2017-01-07T03:40:07.737Z,-12.26
2017-01-07T03:41:07.243Z,-12.18
2017-01-07T03:42:07.942Z,-11.85
2017-01-07T03:43:07.571Z,-12.21
2017-01-07T03:44:07.201Z,-12.33
2017-01-07T03:45:07.772Z,-12.10
2017-01-07T03:46:07.257Z,-11.97
2017-01-07T03:47:07.802Z,-12.17
2017-01-07T03:48:07.318Z,-11.91
2017-01-07T03:49:07.856Z,-12.07
2017-01-07T03:50:07.406Z,-12.12
2017-01-07T03:51:07.950Z,-12.13
2017-01-07T03:52:07.608Z,-12.07
2017-01-07T03:53:07.513Z,-12.33
2017-01-07T03:54:08.089Z,-12.21
2017-01-07T03:55:07.903Z,-12.00
2017-01-07T03:56:07.592Z,-12.03
2017-01-07T03:57:07.255Z,-11.94
2017-01-07T03:58:07.868Z,-12.30
2017-01-07T03:59:07.438Z,-12.30
2017-01-07T04:00:08.172Z,-12.09
2017-01-07T04:01:07.733Z,-12.00
2017-01-07T04:02:07.428Z,-12.40
2017-01-07T04:03:08.275Z,-12.27
2017-01-07T04:04:08.160Z,-11.86
2017-01-07T04:05:07.993Z,-11.77
2017-01-07T04:06:07.595Z,-12.07
2017-01-07T04:07:07.421Z,-11.90
2017-01-07T04:08:07.639Z,-11.97
2017-01-07T04:09:07.290Z,-11.88
2017-01-07T04:10:07.865Z,-12.09
2017-01-07T04:11:07.396Z,-12.05
2017-01-07T04:12:08.017Z,-12.01
2017-01-07T04:13:07.551Z,-12.30
2017-01-07T04:14:08.088Z,-12.12
2017-01-07T04:15:07.879Z,-12.25
2017-01-07T04:16:08.294Z,-12.02
2017-01-07T04:17:07.992Z,-12.15
2017-01-07T04:18:07.074Z,-11.90
2017-01-07T04:19:07.554Z,-11.94
2017-01-07T04:20:08.168Z,-11.87
2017-01-07T04:21:07.995Z,-12.07
2017-01-07T04:22:07.493Z,-12.17
2017-01-07T04:23:08.400Z,-11.86
2017-01-07T04:24:07.980Z,-12.11
2017-01-07T04:25:07.831Z,-12.24
2017-01-07T04:26:07.384Z,-11.88
2017-01-07T04:27:07.867Z,-12.02
2017-01-07T04:28:07.364Z,-11.56
2017-01-07T04:29:07.913Z,-11.39
2017-01-07T04:30:07.481Z,-11.77
2017-01-07T04:31:08.007Z,-11.87
2017-01-07T04:32:07.487Z,-11.74
2017-01-07T04:33:07.963Z,-11.60
2017-01-07T04:34:07.489Z,-11.62
2017-01-07T04:35:08.205Z,-11.63
2017-01-07T04:36:08.018Z,-11.81
2017-01-07T04:37:07.526Z,-11.94
2017-01-07T04:38:07.930Z,-11.73
2017-01-07T04:39:08.291Z,-11.97
2017-01-07T04:40:07.883Z,-11.68
2017-01-07T04:41:07.458Z,-11.52
2017-01-07T04:42:08.121Z,-11.48
2017-01-07T04:43:07.585Z,-11.58
2017-01-07T04:44:07.170Z,-11.05
2017-01-07T04:45:08.139Z,-11.57
2017-01-07T04:46:07.717Z,-10.89
2017-01-07T04:47:07.550Z,-11.30
2017-01-07T04:48:08.366Z,-11.34
2017-01-07T04:49:07.866Z,-11.65
2017-01-07T04:50:07.397Z,-11.17
2017-01-07T04:51:07.966Z,-11.58
2017-01-07T04:52:07.498Z,-11.29
2017-01-07T04:53:08.039Z,-11.38
2017-01-07T04:54:07.525Z,-11.26
2017-01-07T04:55:08.048Z,-11.03
2017-01-07T04:56:07.585Z,-10.81
2017-01-07T04:57:07.089Z,-11.29
2017-01-07T04:58:07.644Z,-11.05
2017-01-07T04:59:07.069Z,-11.17
2017-01-07T05:00:07.610Z,-11.18
2017-01-07T05:01:07.178Z,-11.15
2017-01-07T05:02:07.694Z,-11.12
2017-01-07T05:03:07.538Z,-11.04
2017-01-07T05:04:08.125Z,-11.21
2017-01-07T05:05:07.609Z,-10.84
2017-01-07T05:06:07.449Z,-10.55
2017-01-07T05:07:07.918Z,-10.51
2017-01-07T05:08:07.402Z,-10.33
2017-01-07T05:09:07.932Z,-10.48
2017-01-07T05:10:07.471Z,-10.52
2017-01-07T05:11:08.321Z,-10.58
2017-01-07T05:12:07.937Z,-10.58
2017-01-07T05:13:07.530Z,-10.26
2017-01-07T05:14:08.015Z,-10.71
2017-01-07T05:15:07.832Z,-10.92
2017-01-07T05:16:07.409Z,-11.00
2017-01-07T05:17:08.145Z,-10.78
2017-01-07T05:18:07.787Z,-10.73
2017-01-07T05:19:07.269Z,-10.61
2017-01-07T05:20:07.853Z,-10.87
2017-01-07T05:21:07.695Z,-10.64
2017-01-07T05:22:07.189Z,-11.12
2017-01-07T05:23:07.688Z,-11.28
2017-01-07T05:24:07.524Z,-11.35
2017-01-07T05:25:10.793Z,-10.93
2017-01-07T05:26:07.957Z,-10.93
2017-01-07T05:27:07.818Z,-10.98
2017-01-07T05:28:07.379Z,-11.19
2017-01-07T05:29:08.178Z,-11.18
2017-01-07T05:30:07.910Z,-10.91
2017-01-07T05:31:07.540Z,-11.16
2017-01-07T05:32:07.809Z,-11.00
2017-01-07T05:33:07.236Z,-11.01
2017-01-07T05:34:07.895Z,-10.66
2017-01-07T05:35:07.651Z,-10.82
2017-01-07T05:36:07.166Z,-10.89
2017-01-07T05:37:07.953Z,-10.94
2017-01-07T05:38:07.927Z,-10.56
2017-01-07T05:39:07.429Z,-10.85
2017-01-07T05:40:07.596Z,-10.58
2017-01-07T05:41:07.097Z,-10.58
2017-01-07T05:42:07.952Z,-10.27
2017-01-07T05:43:07.571Z,-9.78
2017-01-07T05:44:08.013Z,-10.02
2017-01-07T05:45:07.470Z,-10.25
2017-01-07T05:46:07.997Z,-10.49
2017-01-07T05:47:07.844Z,-10.45
2017-01-07T05:48:07.708Z,-10.71
2017-01-07T05:49:07.585Z,-10.46
2017-01-07T05:50:07.245Z,-10.45
2017-01-07T05:51:07.872Z,-10.76
2017-01-07T05:52:07.520Z,-10.72
2017-01-07T05:53:07.057Z,-11.00
2017-01-07T05:54:07.633Z,-10.60
2017-01-07T05:55:07.418Z,-10.86
2017-01-07T05:56:07.960Z,-10.99
2017-01-07T05:57:07.490Z,-10.93
2017-01-07T05:58:08.079Z,-10.61
2017-01-07T05:59:07.578Z,-10.78
2017-01-07T06:00:07.151Z,-10.71
2017-01-07T06:01:07.990Z,-10.89
2017-01-07T06:02:07.788Z,-11.07
2017-01-07T06:03:07.293Z,-11.03
2017-01-07T06:04:07.830Z,-11.01
2017-01-07T06:05:07.348Z,-11.12
2017-01-07T06:06:07.941Z,-10.93
2017-01-07T06:07:07.646Z,-10.94
2017-01-07T06:08:07.186Z,-10.90
2017-01-07T06:09:08.047Z,-10.54
2017-01-07T06:10:07.529Z,-10.37
2017-01-07T06:11:08.083Z,-10.38
2017-01-07T06:12:07.895Z,-10.40
2017-01-07T06:13:07.448Z,-10.07
2017-01-07T06:14:07.115Z,-10.27
2017-01-07T06:15:07.706Z,-10.19
2017-01-07T06:16:07.234Z,-10.59
2017-01-07T06:17:07.892Z,-10.75
2017-01-07T06:18:07.627Z,-10.69
2017-01-07T06:19:07.132Z,-10.39
2017-01-07T06:20:07.689Z,-10.63
2017-01-07T06:21:07.574Z,-10.65
2017-01-07T06:22:08.150Z,-10.85
2017-01-07T06:23:07.889Z,-10.47
2017-01-07T06:24:07.455Z,-10.40
2017-01-07T06:25:08.044Z,-10.48
2017-01-07T06:26:07.887Z,-10.68
2017-01-07T06:27:07.434Z,-10.39
2017-01-07T06:28:07.918Z,-10.55
2017-01-07T06:29:07.486Z,-10.08
2017-01-07T06:30:07.968Z,-10.17
2017-01-07T06:31:07.422Z,-10.34
2017-01-07T06:32:07.631Z,-10.63
2017-01-07T06:33:07.148Z,-10.57
2017-01-07T06:34:07.358Z,-10.57
2017-01-07T06:35:07.928Z,-10.61
2017-01-07T06:36:07.530Z,-10.62
2017-01-07T06:37:08.127Z,-10.55
2017-01-07T06:38:07.548Z,-10.60
2017-01-07T06:39:07.589Z,-10.60
2017-01-07T06:40:07.370Z,-10.72
2017-01-07T06:41:08.005Z,-10.75
2017-01-07T06:42:07.710Z,-10.40
2017-01-07T06:43:07.328Z,-10.42
2017-01-07T06:44:07.940Z,-10.32
2017-01-07T06:45:07.442Z,-10.59
2017-01-07T06:46:08.288Z,-10.49
2017-01-07T06:47:07.859Z,-10.36
2017-01-07T06:48:07.423Z,-10.33
2017-01-07T06:49:07.979Z,-10.37
2017-01-07T06:50:07.532Z,-10.42
2017-01-07T06:51:08.228Z,-10.12
2017-01-07T06:52:07.738Z,-10.28
2017-01-07T06:53:07.287Z,-10.41
2017-01-07T06:54:07.980Z,-10.07
2017-01-07T06:55:07.544Z,-9.87
2017-01-07T06:56:08.295Z,-10.03
2017-01-07T06:57:07.857Z,-10.17
2017-01-07T06:58:07.695Z,-10.07
2017-01-07T06:59:07.195Z,-10.00
2017-01-07T07:00:07.755Z,-9.93
2017-01-07T07:01:07.224Z,-9.85
2017-01-07T07:02:07.746Z,-9.84
2017-01-07T07:03:07.289Z,-9.66
2017-01-07T07:04:07.776Z,-9.71
2017-01-07T07:05:07.332Z,-9.80
2017-01-07T07:06:07.914Z,-9.70
2017-01-07T07:07:07.565Z,-10.08
2017-01-07T07:08:08.188Z,-9.94
2017-01-07T07:09:07.990Z,-9.88
2017-01-07T07:10:07.527Z,-9.53
2017-01-07T07:11:08.084Z,-9.78
2017-01-07T07:12:07.730Z,-9.99
2017-01-07T07:13:07.578Z,-9.82
2017-01-07T07:14:08.170Z,-9.92
2017-01-07T07:15:08.007Z,-9.91
2017-01-07T07:16:07.548Z,-9.92
2017-01-07T07:17:08.552Z,-9.61
2017-01-07T07:18:08.070Z,-9.79
2017-01-07T07:19:07.567Z,-9.72
2017-01-07T07:20:08.078Z,-9.52
2017-01-07T07:21:07.588Z,-9.79
2017-01-07T07:22:07.165Z,-10.29
2017-01-07T07:23:07.706Z,-10.17
2017-01-07T07:24:07.378Z,-9.96
2017-01-07T07:25:08.237Z,-9.88
2017-01-07T07:26:07.329Z,-9.79
2017-01-07T07:27:07.837Z,-9.87
2017-01-07T07:28:07.400Z,-9.74
2017-01-07T07:29:07.972Z,-9.48
2017-01-07T07:30:07.708Z,-9.38
2017-01-07T07:31:07.270Z,-9.58
2017-01-07T07:32:07.843Z,-9.74
2017-01-07T07:33:07.340Z,-9.49
2017-01-07T07:34:07.955Z,-9.74
2017-01-07T07:35:07.782Z,-9.61
2017-01-07T07:36:07.623Z,-9.27
2017-01-07T07:37:07.204Z,-9.57
2017-01-07T07:38:07.677Z,-9.75
2017-01-07T07:39:07.295Z,-9.68
2017-01-07T07:40:07.849Z,-9.78
2017-01-07T07:41:07.529Z,-9.69
2017-01-07T07:42:08.181Z,-9.73
2017-01-07T07:43:07.753Z,-9.87
2017-01-07T07:44:07.452Z,-9.67
2017-01-07T07:45:07.918Z,-9.53
2017-01-07T07:46:07.467Z,-9.84
2017-01-07T07:47:08.003Z,-9.59
2017-01-07T07:48:07.414Z,-9.24
2017-01-07T07:49:07.940Z,-9.31
2017-01-07T07:50:07.740Z,-9.33
2017-01-07T07:51:07.398Z,-9.70
2017-01-07T07:52:08.289Z,-9.54
2017-01-07T07:53:07.897Z,-9.33
2017-01-07T07:54:07.438Z,-9.29
2017-01-07T07:55:08.056Z,-9.28
2017-01-07T07:56:07.608Z,-9.14
2017-01-07T07:57:07.052Z,-9.26
2017-01-07T07:58:08.122Z,-9.07
2017-01-07T07:59:07.736Z,-9.32
2017-01-07T08:00:07.186Z,-9.59
2017-01-07T08:01:07.959Z,-9.16
2017-01-07T08:02:07.790Z,-9.35
2017-01-07T08:03:07.328Z,-9.10
2017-01-07T08:04:07.955Z,-8.78
2017-01-07T08:05:07.544Z,-8.71
2017-01-07T08:06:08.287Z,-8.96
2017-01-07T08:07:08.053Z,-8.59
2017-01-07T08:08:07.698Z,-8.66
2017-01-07T08:09:07.336Z,-8.95
2017-01-07T08:10:08.192Z,-8.91
2017-01-07T08:11:08.063Z,-9.26
2017-01-07T08:12:07.666Z,-9.22
2017-01-07T08:13:07.114Z,-9.31
2017-01-07T08:14:07.707Z,-9.10
2017-01-07T08:15:07.238Z,-9.08
2017-01-07T08:16:07.727Z,-8.78
2017-01-07T08:17:07.615Z,-9.08
2017-01-07T08:18:07.427Z,-8.76
2017-01-07T08:19:08.067Z,-8.71
2017-01-07T08:20:07.918Z,-8.71
2017-01-07T08:21:07.704Z,-8.96
2017-01-07T08:22:07.502Z,-8.86
2017-01-07T08:23:08.070Z,-8.97
2017-01-07T08:24:07.581Z,-8.74
2017-01-07T08:25:07.082Z,-8.63
2017-01-07T08:26:07.576Z,-8.37
2017-01-07T08:27:07.388Z,-8.52
2017-01-07T08:28:07.932Z,-8.63
2017-01-07T08:29:07.835Z,-8.72
2017-01-07T08:30:07.414Z,-8.48
2017-01-07T08:31:07.915Z,-8.56
2017-01-07T08:32:07.475Z,-8.64
2017-01-07T08:33:07.917Z,-8.31
2017-01-07T08:34:07.495Z,-8.19
2017-01-07T08:35:08.317Z,-8.35
2017-01-07T08:36:07.905Z,-8.31
2017-01-07T08:37:07.382Z,-8.36
2017-01-07T08:38:07.936Z,-8.41
2017-01-07T08:39:07.757Z,-8.45
2017-01-07T08:40:07.664Z,-8.52
2017-01-07T08:41:07.203Z,-8.48
2017-01-07T08:42:07.982Z,-8.48
2017-01-07T08:43:07.525Z,-8.41
2017-01-07T08:44:08.038Z,-8.20
2017-01-07T08:45:07.568Z,-8.02
2017-01-07T08:46:07.102Z,-7.95
2017-01-07T08:47:07.612Z,-7.92
2017-01-07T08:48:07.146Z,-7.82
2017-01-07T08:49:07.662Z,-7.86
2017-01-07T08:50:07.237Z,-8.22
2017-01-07T08:51:08.000Z,-8.21
2017-01-07T08:52:07.675Z,-7.75
2017-01-07T08:53:07.211Z,-7.72
2017-01-07T08:54:07.714Z,-8.13
2017-01-07T08:55:07.592Z,-8.02
2017-01-07T08:56:07.090Z,-7.86
2017-01-07T08:57:07.585Z,-7.99
2017-01-07T08:58:07.162Z,-7.81
2017-01-07T08:59:07.729Z,-7.78
2017-01-07T09:00:07.641Z,-7.70
2017-01-07T09:01:07.218Z,-7.78
2017-01-07T09:02:07.892Z,-7.80
2017-01-07T09:03:07.763Z,-7.76
2017-01-07T09:04:07.611Z,-7.50
2017-01-07T09:05:07.510Z,-7.64
2017-01-07T09:06:08.109Z,-7.44
2017-01-07T09:07:07.733Z,-7.67
2017-01-07T09:08:07.336Z,-7.68
2017-01-07T09:09:07.873Z,-7.94
2017-01-07T09:10:07.569Z,-7.76
2017-01-07T09:11:08.141Z,-7.71
2017-01-07T09:12:07.726Z,-7.53
2017-01-07T09:13:07.566Z,-7.62
2017-01-07T09:14:07.168Z,-7.51
2017-01-07T09:15:07.929Z,-7.16
2017-01-07T09:16:07.454Z,-7.15
2017-01-07T09:17:08.109Z,-7.02
2017-01-07T09:18:07.694Z,-7.12
2017-01-07T09:19:07.671Z,-6.98
2017-01-07T09:20:07.189Z,-7.03
2017-01-07T09:21:07.747Z,-6.78
2017-01-07T09:22:07.291Z,-7.21
2017-01-07T09:23:07.852Z,-7.20
2017-01-07T09:24:08.279Z,-7.06
2017-01-07T09:25:07.798Z,-6.82
2017-01-07T09:26:07.471Z,-6.67
2017-01-07T09:27:07.950Z,-6.74
2017-01-07T09:28:07.522Z,-6.76
2017-01-07T09:29:08.110Z,-6.89
2017-01-07T09:30:07.762Z,-7.34
2017-01-07T09:31:07.371Z,-7.05
2017-01-07T09:32:08.033Z,-7.02
2017-01-07T09:33:18.082Z,-6.65
2017-01-07T09:34:07.625Z,-6.65
2017-01-07T09:35:07.509Z,-6.32
2017-01-07T09:36:08.188Z,-6.76
2017-01-07T09:37:07.863Z,-6.73
2017-01-07T09:38:07.454Z,-6.91
2017-01-07T09:39:08.010Z,-6.53
2017-01-07T09:40:07.412Z,-6.23
2017-01-07T09:41:08.089Z,-6.45
2017-01-07T09:42:07.653Z,-6.11
2017-01-07T09:43:07.285Z,-6.15
2017-01-07T09:44:07.818Z,-6.07
2017-01-07T09:45:07.372Z,-6.21
2017-01-07T09:46:07.943Z,-6.33
2017-01-07T09:47:07.836Z,-6.10
2017-01-07T09:48:07.490Z,-6.27
2017-01-07T09:49:08.082Z,-6.04
2017-01-07T09:50:07.780Z,-6.06
2017-01-07T09:51:07.433Z,-6.16
2017-01-07T09:52:07.954Z,-5.94
2017-01-07T09:53:07.510Z,-6.21
2017-01-07T09:54:08.298Z,-6.01
2017-01-07T09:55:07.859Z,-6.21
2017-01-07T09:56:07.419Z,-6.04
2017-01-07T09:57:08.081Z,-6.18
2017-01-07T09:58:07.877Z,-6.18
2017-01-07T09:59:07.442Z,-6.24
2017-01-07T10:00:08.234Z,-6.15
2017-01-07T10:01:08.063Z,-6.14
2017-01-07T10:02:07.542Z,-5.81
2017-01-07T10:03:08.182Z,-5.47
2017-01-07T10:04:07.929Z,-5.76
2017-01-07T10:05:07.434Z,-5.79
2017-01-07T10:06:09.532Z,-5.59
2017-01-07T10:07:08.073Z,-5.43
2017-01-07T10:08:07.600Z,-5.49
2017-01-07T10:09:07.289Z,-5.29
2017-01-07T10:10:08.031Z,-5.70
2017-01-07T10:11:07.592Z,-5.84
2017-01-07T10:12:07.166Z,-5.75
2017-01-07T10:13:07.620Z,-5.74
2017-01-07T10:14:07.202Z,-5.91
2017-01-07T10:15:07.724Z,-5.74
2017-01-07T10:16:08.284Z,-5.76
2017-01-07T10:17:07.904Z,-5.91
2017-01-07T10:18:07.620Z,-5.91
2017-01-07T10:19:07.391Z,-5.71
2017-01-07T10:20:07.977Z,-5.67
2017-01-07T10:21:07.529Z,-5.49
2017-01-07T10:22:08.067Z,-5.67
2017-01-07T10:23:07.935Z,-5.22
2017-01-07T10:24:07.483Z,-5.33
2017-01-07T10:25:07.950Z,-5.51
2017-01-07T10:26:07.763Z,-5.46
2017-01-07T10:27:07.521Z,-5.24
2017-01-07T10:28:08.115Z,-5.51
2017-01-07T10:29:07.992Z,-5.80
2017-01-07T10:30:07.671Z,-5.67
2017-01-07T10:31:07.312Z,-5.38
2017-01-07T10:32:08.026Z,-5.48
2017-01-07T10:33:07.862Z,-5.27
2017-01-07T10:34:07.491Z,-5.20
2017-01-07T10:35:08.073Z,-5.22
2017-01-07T10:36:07.828Z,-5.16
2017-01-07T10:37:07.523Z,-5.12
2017-01-07T10:38:08.455Z,-5.27
2017-01-07T10:39:07.983Z,-5.19
2017-01-07T10:40:07.464Z,-5.49
2017-01-07T10:41:08.075Z,-5.19
2017-01-07T10:42:07.632Z,-5.26
2017-01-07T10:43:07.473Z,-5.61
2017-01-07T10:44:08.130Z,-5.70
2017-01-07T10:45:07.701Z,-5.58
2017-01-07T10:46:07.204Z,-5.28
2017-01-07T10:47:07.449Z,-5.25
2017-01-07T10:48:08.246Z,-5.18
2017-01-07T10:49:07.654Z,-5.02
2017-01-07T10:50:07.145Z,-5.18
2017-01-07T10:51:07.744Z,-5.00
2017-01-07T10:52:07.337Z,-5.08
2017-01-07T10:53:07.943Z,-5.03
2017-01-07T10:54:07.450Z,-5.12
2017-01-07T10:55:07.970Z,-5.13
2017-01-07T10:56:07.545Z,-4.91
2017-01-07T10:57:08.048Z,-5.13
2017-01-07T10:58:07.873Z,-5.06
2017-01-07T10:59:07.550Z,-5.13
2017-01-07T11:00:07.392Z,-5.04
2017-01-07T11:01:07.966Z,-4.70
2017-01-07T11:02:07.769Z,-4.84
2017-01-07T11:03:07.602Z,-4.66
2017-01-07T11:04:07.309Z,-4.68
2017-01-07T11:05:07.935Z,-5.10
2017-01-07T11:06:07.478Z,-5.22
2017-01-07T11:07:07.988Z,-5.08
2017-01-07T11:08:07.488Z,-5.12
2017-01-07T11:09:08.198Z,-5.03
2017-01-07T11:10:07.873Z,-4.67
2017-01-07T11:11:07.612Z,-4.57
2017-01-07T11:12:07.419Z,-4.57
2017-01-07T11:13:08.289Z,-4.66
2017-01-07T11:14:07.491Z,-4.56
2017-01-07T11:15:08.314Z,-4.44
2017-01-07T11:16:08.013Z,-4.47
2017-01-07T11:17:07.714Z,-4.44
2017-01-07T11:18:07.234Z,-4.48
2017-01-07T11:19:07.723Z,-4.56
2017-01-07T11:20:07.241Z,-4.49
2017-01-07T11:21:07.790Z,-4.35
2017-01-07T11:22:07.286Z,-4.33
2017-01-07T11:23:07.779Z,-4.25
2017-01-07T11:24:07.339Z,-4.27
2017-01-07T11:25:07.910Z,-4.29
2017-01-07T11:26:07.850Z,-4.48
2017-01-07T11:27:07.665Z,-4.44
2017-01-07T11:28:07.155Z,-4.32
2017-01-07T11:29:07.757Z,-4.28
2017-01-07T11:30:07.589Z,-4.36
2017-01-07T11:31:08.206Z,-4.46
2017-01-07T11:32:07.748Z,-4.62
2017-01-07T11:33:07.349Z,-4.65
2017-01-07T11:34:08.143Z,-4.39
2017-01-07T11:35:07.858Z,-4.44
2017-01-07T11:36:07.777Z,-4.32
2017-01-07T11:37:07.353Z,-4.14
2017-01-07T11:38:07.896Z,-4.19
2017-01-07T11:39:08.705Z,-4.38
2017-01-07T11:40:08.299Z,-4.06
2017-01-07T11:41:07.812Z,-4.22
2017-01-07T11:42:07.681Z,-4.12
2017-01-07T11:43:07.609Z,-4.03
2017-01-07T11:44:07.088Z,-4.01
2017-01-07T11:45:08.375Z,-4.13
2017-01-07T11:46:08.101Z,-4.29
2017-01-07T11:47:07.710Z,-4.07
2017-01-07T11:48:07.413Z,-4.09
2017-01-07T11:49:07.989Z,-3.98
2017-01-07T11:50:07.626Z,-3.72
2017-01-07T11:51:07.353Z,-3.82
2017-01-07T11:52:08.232Z,-4.27
2017-01-07T11:53:07.791Z,-4.23
2017-01-07T11:54:07.358Z,-3.77
2017-01-07T11:56:08.194Z,-4.00
2017-01-07T11:57:07.815Z,-4.29
2017-01-07T11:58:07.409Z,-3.83
2017-01-07T11:59:08.011Z,-3.93
2017-01-07T12:00:08.468Z,-3.90
2017-01-07T12:01:08.897Z,-3.80
2017-01-07T12:02:08.388Z,-3.81
2017-01-07T12:03:08.216Z,-3.72
2017-01-07T12:04:07.843Z,-3.68
2017-01-07T12:05:08.348Z,-3.71
2017-01-07T12:06:07.849Z,-3.71
2017-01-07T12:07:07.409Z,-3.48
2017-01-07T12:08:08.883Z,-3.46
2017-01-07T12:09:08.321Z,-3.43
2017-01-07T12:10:07.849Z,-3.66
2017-01-07T12:11:07.366Z,-3.52
2017-01-07T12:12:09.011Z,-3.16
2017-01-07T12:13:08.467Z,-3.48
2017-01-07T12:14:08.072Z,-3.49
2017-01-07T12:15:07.817Z,-3.59
2017-01-07T12:16:07.374Z,-3.34
2017-01-07T12:17:08.035Z,-3.45
2017-01-07T12:18:07.552Z,-3.61
2017-01-07T12:19:08.003Z,-3.34
2017-01-07T12:20:07.428Z,-3.44
2017-01-07T12:21:08.088Z,-3.31
2017-01-07T12:22:07.544Z,-3.37
2017-01-07T12:23:08.098Z,-3.21
2017-01-07T12:24:07.731Z,-3.02
2017-01-07T12:25:07.375Z,-3.11
2017-01-07T12:26:08.221Z,-3.24
2017-01-07T12:27:07.786Z,-3.12
2017-01-07T12:28:07.335Z,-3.13
2017-01-07T12:29:07.890Z,-3.04
2017-01-07T12:30:07.573Z,-3.02
2017-01-07T12:31:08.093Z,-3.07
2017-01-07T12:32:07.668Z,-3.07
2017-01-07T12:33:07.217Z,-2.96
2017-01-07T12:34:09.350Z,-3.16
2017-01-07T12:35:07.883Z,-2.95
2017-01-07T12:36:07.627Z,-3.12
2017-01-07T12:37:08.103Z,-3.06
2017-01-07T12:38:08.619Z,-3.29
2017-01-07T12:39:08.102Z,-3.13
2017-01-07T12:40:07.616Z,-3.16